Time;durP1;ratioP1;P1;durP2;ratioP2;P2;SDS_P1;SDS_P2;PMS_P1;PMS_P2;Temp;Humidity;BMP_temperature;BMP_pressure;BME280_temperature;BME280_humidity;BME280_pressure;Samples;Min_cycle;Max_cycle;Signal;HPM_P1;HPM_P2
2023/11/19 00:00:25;;;;;;;3.97;2.30;;;;;;;10.47;43.63;98291.63;4954630;28;20043;-71
2023/11/19 00:02:51;;;;;;;2.72;1.80;;;;;;;10.50;43.34;98309.63;4953335;29;20031;-71
2023/11/19 00:05:17;;;;;;;3.17;2.00;;;;;;;10.50;43.34;98317.47;4954392;28;20035;-70
2023/11/19 00:07:42;;;;;;;4.10;2.20;;;;;;;10.50;43.25;98307.03;4954547;28;20494;-70
2023/11/19 00:10:09;;;;;;;3.88;2.35;;;;;;;10.45;43.47;98324.84;4953192;29;20027;-70
2023/11/19 00:12:36;;;;;;;5.43;2.85;;;;;;;10.50;43.42;98314.84;4952979;28;20042;-70
2023/11/19 00:15:02;;;;;;;5.50;2.92;;;;;;;10.50;43.49;98316.66;4937059;29;20545;-71
2023/11/19 00:17:27;;;;;;;6.03;2.85;;;;;;;10.50;43.63;98314.84;4937474;29;20062;-71
2023/11/19 00:19:52;;;;;;;8.27;3.35;;;;;;;10.46;43.90;98304.78;4953187;29;20031;-71
2023/11/19 00:22:18;;;;;;;5.35;2.95;;;;;;;10.45;43.87;98314.41;4969072;28;20055;-71
2023/11/19 00:24:44;;;;;;;6.68;3.50;;;;;;;10.47;44.01;98324.72;4969160;28;20506;-71
2023/11/19 00:27:10;;;;;;;5.45;3.15;;;;;;;10.43;44.15;98315.47;4953320;29;20039;-71
2023/11/19 00:29:36;;;;;;;5.65;3.22;;;;;;;10.45;43.90;98322.25;4969302;28;20024;-71
2023/11/19 00:32:01;;;;;;;5.10;3.10;;;;;;;10.44;44.07;98336.22;4953135;28;20050;-71
2023/11/19 00:34:27;;;;;;;5.80;3.10;;;;;;;10.42;44.21;98353.81;4954094;28;20443;-71
2023/11/19 00:36:52;;;;;;;5.97;3.00;;;;;;;10.42;44.05;98353.81;4952890;28;20475;-71
2023/11/19 00:39:19;;;;;;;5.53;3.00;;;;;;;10.41;44.25;98354.75;4968904;28;20027;-71
2023/11/19 00:41:46;;;;;;;4.50;2.75;;;;;;;10.40;44.33;98353.09;4954609;28;20046;-72
2023/11/19 00:44:11;;;;;;;4.55;2.58;;;;;;;10.37;44.17;98360.34;4937614;29;20130;-71
2023/11/19 00:46:37;;;;;;;3.97;2.33;;;;;;;10.39;44.44;98363.63;4952939;29;20034;-71
2023/11/19 00:49:02;;;;;;;3.53;2.25;;;;;;;10.42;44.23;98369.47;4968948;28;20380;-72
2023/11/19 00:51:28;;;;;;;4.45;2.60;;;;;;;10.41;44.24;98357.34;4952823;28;20043;-72
2023/11/19 00:53:53;;;;;;;3.50;2.05;;;;;;;10.40;44.41;98360.09;4952688;28;20040;-72
2023/11/19 00:56:19;;;;;;;3.45;2.13;;;;;;;10.36;44.43;98356.91;4937367;28;20422;-74
2023/11/19 00:58:45;;;;;;;3.75;2.25;;;;;;;10.42;44.52;98366.00;4969175;28;20113;-71
2023/11/19 01:01:14;;;;;;;3.80;1.75;;;;;;;10.40;44.34;98363.53;4969017;28;20121;-70
2023/11/19 01:03:39;;;;;;;;;;;;;;;10.42;44.49;98368.63;4953574;29;20061;-71
2023/11/19 01:06:05;;;;;;;3.53;1.88;;;;;;;10.35;44.40;98362.25;4969040;28;20370;-71
2023/11/19 01:08:30;;;;;;;3.70;1.83;;;;;;;10.34;44.23;98361.41;4952731;28;20427;-71
2023/11/19 01:10:56;;;;;;;3.50;1.55;;;;;;;10.39;44.58;98368.88;4970594;28;20062;-71
2023/11/19 01:13:22;;;;;;;2.83;1.67;;;;;;;10.36;44.70;98350.84;4956287;28;20118;-71
2023/11/19 01:15:47;;;;;;;2.65;1.70;;;;;;;10.35;44.53;98352.63;4972272;28;20451;-71
2023/11/19 01:18:13;;;;;;;2.88;1.50;;;;;;;10.40;44.41;98357.47;4972412;28;20055;-72
2023/11/19 01:20:38;;;;;;;2.85;1.48;;;;;;;10.34;44.51;98350.97;4956187;29;20031;-71
2023/11/19 01:23:04;;;;;;;2.67;1.48;;;;;;;10.36;44.48;98358.69;4972156;28;20082;-71
2023/11/19 01:25:29;;;;;;;2.70;1.27;;;;;;;10.32;44.42;98353.69;4972214;28;20448;-71
2023/11/19 01:27:58;;;;;;;2.15;1.38;;;;;;;10.38;44.56;98367.22;4972386;28;20147;-72
2023/11/19 01:30:24;;;;;;;2.72;1.40;;;;;;;10.37;44.52;98370.78;4971698;28;20475;-71
2023/11/19 01:32:49;;;;;;;2.80;1.38;;;;;;;10.31;44.65;98365.09;4956163;29;20122;-70
2023/11/19 01:35:15;;;;;;;2.00;1.23;;;;;;;10.34;44.45;98365.81;4971947;28;20113;-70
2023/11/19 01:37:40;;;;;;;1.30;0.90;;;;;;;10.34;44.56;98371.03;4972006;28;20047;-71
2023/11/19 01:40:10;;;;;;;1.85;1.10;;;;;;;10.32;44.65;98371.97;4955843;29;20020;-70
2023/11/19 01:42:39;;;;;;;1.45;0.80;;;;;;;10.34;44.48;98371.84;4955782;28;20034;-70
2023/11/19 01:45:07;;;;;;;;;;;;;;;10.33;44.50;98378.03;4956728;29;20250;-70
2023/11/19 01:47:32;;;;;;;2.10;1.00;;;;;;;10.29;44.52;98361.78;4956921;28;19962;-70
2023/11/19 01:49:58;;;;;;;2.63;1.02;;;;;;;10.28;44.77;98354.06;4955419;28;20039;-70
2023/11/19 01:52:23;;;;;;;1.65;0.70;;;;;;;10.28;44.64;98365.31;4955487;28;20046;-70
2023/11/19 01:54:49;;;;;;;1.33;0.70;;;;;;;10.24;44.47;98339.63;4955910;29;20042;-70
2023/11/19 01:57:14;;;;;;;1.38;0.82;;;;;;;10.28;44.60;98349.69;4971918;28;20117;-70
2023/11/19 01:59:41;;;;;;;1.52;0.80;;;;;;;10.28;44.65;98352.28;4971575;28;20027;-70
2023/11/19 02:02:07;;;;;;;1.75;0.80;;;;;;;10.27;44.68;98337.56;4956683;28;20121;-70
2023/11/19 02:04:32;;;;;;;1.58;0.65;;;;;;;10.25;44.53;98334.28;4977367;28;20038;-70
2023/11/19 02:06:58;;;;;;;1.30;0.70;;;;;;;10.22;44.81;98339.72;4974463;28;20047;-69
2023/11/19 02:09:23;;;;;;;1.50;0.65;;;;;;;10.20;44.73;98325.16;4958990;28;20035;-70
2023/11/19 02:11:51;;;;;;;1.45;0.80;;;;;;;10.23;44.70;98338.78;4974563;28;20403;-70
2023/11/19 02:14:17;;;;;;;1.42;0.60;;;;;;;10.25;44.62;98336.88;4958585;28;20069;-71
2023/11/19 02:16:42;;;;;;;1.92;0.73;;;;;;;10.23;44.63;98338.78;4974594;28;20567;-70
2023/11/19 02:19:10;;;;;;;1.42;0.63;;;;;;;10.22;44.55;98337.13;4958185;28;20035;-70
2023/11/19 02:21:35;;;;;;;1.10;0.50;;;;;;;10.20;44.66;98333.81;4975101;28;20061;-70
2023/11/19 02:24:03;;;;;;;1.00;0.63;;;;;;;10.21;44.51;98334.66;4990431;28;20502;-70
2023/11/19 02:26:39;;;;;;;0.98;0.60;;;;;;;10.19;44.57;98315.69;4974168;28;20111;-70
2023/11/19 02:29:06;;;;;;;0.80;0.50;;;;;;;10.18;44.51;98332.28;4973387;28;20125;-70
2023/11/19 02:31:32;;;;;;;0.73;0.50;;;;;;;10.16;44.54;98329.78;4974300;28;20030;-70
2023/11/19 02:34:00;;;;;;;0.77;0.50;;;;;;;10.11;44.39;98319.72;4973797;28;20031;-70
2023/11/19 02:36:25;;;;;;;0.63;0.40;;;;;;;10.12;44.47;98334.44;4990338;28;20038;-70
2023/11/19 02:38:51;;;;;;;1.08;0.50;;;;;;;10.17;44.29;98339.28;4973889;28;20027;-70
2023/11/19 02:41:16;;;;;;;1.73;0.73;;;;;;;10.16;44.25;98344.63;4974022;28;20042;-70
2023/11/19 02:43:42;;;;;;;0.82;0.40;;;;;;;10.17;44.33;98341.91;4974381;28;20049;-70
2023/11/19 02:46:07;;;;;;;1.33;0.60;;;;;;;10.14;44.25;98336.94;4974070;28;20069;-70
2023/11/19 02:48:35;;;;;;;0.75;0.45;;;;;;;10.17;44.16;98352.31;4975075;28;20470;-70
2023/11/19 02:51:03;;;;;;;1.02;0.55;;;;;;;10.17;43.88;98348.88;4989789;28;20041;-70
2023/11/19 02:53:31;;;;;;;0.60;0.40;;;;;;;10.14;44.05;98347.34;4973788;28;20023;-70
2023/11/19 02:56:11;;;;;;;1.17;0.50;;;;;;;10.19;44.12;98354.81;4956963;28;20038;-70
2023/11/19 02:58:37;;;;;;;0.45;0.38;;;;;;;10.12;43.84;98351.84;4973512;28;20026;-70
2023/11/19 03:01:12;;;;;;;0.70;0.43;;;;;;;10.17;43.99;98362.75;4973619;28;20060;-70
2023/11/19 03:03:38;;;;;;;0.70;0.40;;;;;;;10.17;44.07;98348.88;4988249;28;20101;-72
2023/11/19 03:06:06;;;;;;;0.90;0.40;;;;;;;10.13;43.95;98366.56;4973363;28;20050;-71
2023/11/19 03:08:32;;;;;;;1.23;0.57;;;;;;;10.17;43.85;98357.53;4973496;28;20046;-70
2023/11/19 03:10:58;;;;;;;0.95;0.55;;;;;;;10.10;44.07;98345.94;4956735;28;20133;-70
2023/11/19 03:13:24;;;;;;;1.45;0.50;;;;;;;10.16;43.72;98361.09;4972946;28;20033;-71
2023/11/19 03:15:50;;;;;;;1.08;0.40;;;;;;;10.11;43.83;98361.47;4972936;28;20031;-70
2023/11/19 03:18:15;;;;;;;0.45;0.38;;;;;;;10.16;43.76;98366.31;4989186;28;20035;-70
2023/11/19 03:20:41;;;;;;;0.73;0.50;;;;;;;10.13;43.64;98366.56;4972888;28;20046;-70
2023/11/19 03:23:06;;;;;;;0.90;0.45;;;;;;;10.11;43.76;98371.06;4972763;28;20113;-70
2023/11/19 03:25:36;;;;;;;0.52;0.40;;;;;;;10.11;43.73;98376.28;4972891;28;20026;-70
2023/11/19 03:28:02;;;;;;;0.80;0.40;;;;;;;10.12;43.47;98381.38;4972961;28;20026;-69
2023/11/19 03:30:28;;;;;;;0.88;0.55;;;;;;;10.14;43.50;98376.88;4972841;28;20023;-69
2023/11/19 03:32:54;;;;;;;1.25;0.45;;;;;;;10.09;43.70;98389.47;4972422;28;20038;-69
2023/11/19 03:35:20;;;;;;;0.55;0.38;;;;;;;10.13;43.27;98397.84;4972540;28;20130;-69
2023/11/19 03:37:46;;;;;;;0.98;0.47;;;;;;;10.07;43.56;98401.78;4956858;28;20034;-69
2023/11/19 03:40:12;;;;;;;1.05;0.60;;;;;;;10.07;43.31;98403.56;4972730;28;20478;-69
2023/11/19 03:42:39;;;;;;;0.95;0.47;;;;;;;10.08;43.24;98392.19;4988661;28;20475;-70
2023/11/19 03:45:08;;;;;;;11.23;0.50;;;;;;;10.07;43.38;98387.91;4972871;28;20034;-71
2023/11/19 03:47:35;;;;;;;0.75;0.40;;;;;;;10.08;43.33;98389.56;4972804;28;20549;-70
2023/11/19 03:50:00;;;;;;;0.57;0.40;;;;;;;10.08;43.21;98387.78;4956478;28;20042;-70
2023/11/19 03:52:29;;;;;;;1.40;0.50;;;;;;;10.04;43.27;98382.94;4972543;28;20038;-70
2023/11/19 03:54:55;;;;;;;1.27;0.50;;;;;;;10.03;43.35;98395.16;4972288;28;20030;-71
2023/11/19 03:57:21;;;;;;;0.88;0.40;;;;;;;10.03;43.44;98402.16;4972370;28;20545;-70
2023/11/19 03:59:46;;;;;;;1.23;0.60;;;;;;;10.03;43.53;98408.19;4972460;28;20136;-70
2023/11/19 04:02:12;;;;;;;1.10;0.50;;;;;;;9.99;43.37;98411.97;4973412;28;20062;-70
2023/11/19 04:04:38;;;;;;;0.93;0.55;;;;;;;9.97;43.33;98406.06;4955953;28;20073;-70
2023/11/19 04:07:04;;;;;;;0.82;0.50;;;;;;;10.02;43.46;98418.75;4956421;28;20042;-70
2023/11/19 04:09:30;;;;;;;0.70;0.40;;;;;;;10.00;43.29;98424.09;4988518;28;20031;-71
2023/11/19 04:11:56;;;;;;;0.95;0.50;;;;;;;9.96;43.38;98402.66;4972197;28;20105;-71
2023/11/19 04:14:22;;;;;;;0.70;0.40;;;;;;;10.01;43.39;98419.69;4972063;28;20494;-71
2023/11/19 04:16:47;;;;;;;0.80;0.40;;;;;;;9.96;43.25;98418.28;4973387;28;20065;-71
2023/11/19 04:19:13;;;;;;;0.98;0.47;;;;;;;9.94;43.26;98417.56;4988247;28;20023;-71
2023/11/19 04:21:42;;;;;;;1.08;0.60;;;;;;;9.98;43.12;98427.75;4971940;28;20051;-71
2023/11/19 04:24:08;;;;;;;0.63;0.47;;;;;;;9.93;43.10;98409.84;4988327;28;20059;-71
2023/11/19 04:26:34;;;;;;;2.42;0.70;;;;;;;9.99;42.98;98419.00;4972040;28;20062;-71
2023/11/19 04:29:00;;;;;;;0.73;0.50;;;;;;;9.93;43.02;98417.69;4988355;28;20039;-72
2023/11/19 04:31:31;;;;;;;0.70;0.52;;;;;;;9.99;43.16;98434.63;4955970;28;20118;-72
2023/11/19 04:33:56;;;;;;;0.60;0.40;;;;;;;9.97;43.24;98437.34;4956004;28;20039;-73
2023/11/19 04:36:24;;;;;;;1.98;0.50;;;;;;;9.99;43.16;98435.44;4972090;28;20514;-73
2023/11/19 04:38:50;;;;;;;0.80;0.50;;;;;;;9.99;42.89;98440.66;4987422;28;20448;-71
2023/11/19 04:41:15;;;;;;;1.63;0.60;;;;;;;10.00;42.79;98444.13;4971641;28;20282;-72
2023/11/19 04:43:41;;;;;;;0.90;0.40;;;;;;;10.00;42.92;98433.69;4955764;28;20035;-71
2023/11/19 04:46:07;;;;;;;0.88;0.40;;;;;;;9.98;42.57;98439.03;4974048;28;20478;-71
2023/11/19 04:48:32;;;;;;;0.98;0.57;;;;;;;9.97;42.69;98437.34;4975877;28;20097;-71
2023/11/19 04:50:57;;;;;;;1.08;0.60;;;;;;;9.98;42.78;98439.03;4976115;28;20117;-72
2023/11/19 04:53:23;;;;;;;0.90;0.60;;;;;;;9.99;42.71;98442.47;4975733;28;20062;-70
2023/11/19 04:55:48;;;;;;;0.75;0.50;;;;;;;10.00;42.52;98433.69;4959501;28;20046;-70
2023/11/19 04:58:14;;;;;;;1.98;0.50;;;;;;;9.98;42.54;98427.75;4977148;28;20531;-71
2023/11/19 05:00:39;;;;;;;1.73;0.75;;;;;;;9.95;42.39;98416.63;4975615;28;20106;-71
2023/11/19 05:03:05;;;;;;;0.77;0.47;;;;;;;9.98;42.60;98420.78;4992002;28;20038;-71
2023/11/19 05:05:30;;;;;;;1.17;0.68;;;;;;;9.98;42.30;98422.53;4975608;28;20093;-72
2023/11/19 05:07:56;;;;;;;0.90;0.57;;;;;;;9.98;42.21;98426.00;4975164;28;20046;-71
2023/11/19 05:10:22;;;;;;;0.85;0.50;;;;;;;9.92;42.36;98414.25;4975323;28;20134;-72
2023/11/19 05:12:47;;;;;;;0.70;0.50;;;;;;;9.96;42.34;98428.72;4991842;28;20038;-70
2023/11/19 05:15:14;;;;;;;1.13;0.65;;;;;;;9.98;42.38;98444.25;4991536;28;20411;-71
2023/11/19 05:17:39;;;;;;;2.45;0.70;;;;;;;9.93;42.29;98422.91;4976552;28;20031;-73
2023/11/19 05:20:12;;;;;;;1.38;0.57;;;;;;;9.99;42.15;98442.47;4975219;28;20030;-71
2023/11/19 05:22:41;;;;;;;0.90;0.60;;;;;;;9.97;42.14;98450.41;4990527;28;20047;-71
2023/11/19 05:25:08;;;;;;;1.10;0.70;;;;;;;9.98;42.10;98459.03;4975277;28;20027;-72
2023/11/19 05:27:33;;;;;;;1.17;0.77;;;;;;;9.98;41.94;98457.28;4975514;28;20027;-71
2023/11/19 05:29:59;;;;;;;0.80;0.57;;;;;;;9.99;42.02;98463.31;4975277;28;20045;-71
2023/11/19 05:32:24;;;;;;;1.85;0.60;;;;;;;10.01;42.06;98461.41;4976236;28;20126;-70
2023/11/19 05:34:50;;;;;;;0.57;0.43;;;;;;;9.96;42.01;98462.63;4975419;28;20050;-71
2023/11/19 05:37:15;;;;;;;1.40;0.70;;;;;;;10.02;42.19;98471.72;4990264;28;20065;-72
2023/11/19 05:39:41;;;;;;;0.85;0.50;;;;;;;10.02;42.03;98474.31;4990135;28;20031;-72
2023/11/19 05:42:07;;;;;;;0.93;0.68;;;;;;;10.03;41.95;98469.97;4957907;28;20043;-70
2023/11/19 05:44:32;;;;;;;0.90;0.50;;;;;;;10.04;41.94;98477.66;4973735;28;20458;-70
2023/11/19 05:46:58;;;;;;;1.75;0.80;;;;;;;10.06;41.95;98503.63;4990097;28;20035;-70
2023/11/19 05:49:23;;;;;;;1.08;0.65;;;;;;;10.04;41.96;98485.50;4957552;28;20467;-70
2023/11/19 05:51:48;;;;;;;1.73;0.70;;;;;;;10.02;42.02;98479.53;4973228;28;20040;-70
2023/11/19 05:54:14;;;;;;;1.23;0.70;;;;;;;10.09;41.86;98477.31;4973342;28;20077;-70
2023/11/19 05:56:40;;;;;;;1.52;0.60;;;;;;;10.09;41.96;98487.75;4973880;28;20038;-69
2023/11/19 05:59:14;;;;;;;1.17;0.70;;;;;;;10.11;41.80;98476.22;4973424;28;20026;-71
2023/11/19 06:01:41;;;;;;;0.90;0.70;;;;;;;10.10;41.63;98466.75;4958473;28;20030;-70
2023/11/19 06:04:07;;;;;;;1.33;0.80;;;;;;;10.14;41.71;98488.19;4957428;28;20035;-72
2023/11/19 06:06:32;;;;;;;1.38;0.85;;;;;;;10.16;41.42;98470.66;4973402;28;20475;-69
2023/11/19 06:08:58;;;;;;;1.02;0.73;;;;;;;10.16;41.51;98473.25;4989263;28;20034;-71
2023/11/19 06:11:26;;;;;;;1.17;0.80;;;;;;;10.25;41.35;98466.50;4973323;28;20045;-70
2023/11/19 06:13:52;;;;;;;;;;;;;;;10.30;41.35;98474.78;4958050;28;20030;-70
2023/11/19 06:16:17;;;;;;;2.08;0.77;;;;;;;10.30;40.98;98469.56;4973311;28;20293;-70
2023/11/19 06:18:43;;;;;;;1.80;0.80;;;;;;;10.32;41.11;98463.28;4973340;28;20114;-70
2023/11/19 06:21:09;;;;;;;0.85;0.60;;;;;;;10.41;41.06;98468.75;4972908;28;20100;-72
2023/11/19 06:23:35;;;;;;;1.15;0.80;;;;;;;10.46;41.08;98463.97;4970943;28;20501;-78
2023/11/19 06:26:00;;;;;;;1.40;0.90;;;;;;;10.56;40.89;98453.63;4973241;28;20101;-80
2023/11/19 06:28:26;;;;;;;2.88;0.70;;;;;;;10.69;50.56;98464.75;4957210;28;20057;-77
2023/11/19 06:30:54;;;;;;;2.47;0.50;;;;;;;11.12;53.97;98457.78;4974261;28;20039;-80
2023/11/19 06:33:20;;;;;;;9.05;0.80;;;;;;;11.28;52.96;98458.16;4989318;28;20058;-80
2023/11/19 06:35:45;;;;;;;4.30;0.73;;;;;;;11.34;51.00;98475.13;4972386;28;20450;-79
2023/11/19 06:38:11;;;;;;;3.38;0.90;;;;;;;11.34;50.17;98472.50;4988943;28;20474;-79
2023/11/19 06:40:36;;;;;;;1.83;0.73;;;;;;;11.33;49.57;98487.31;4988498;28;20057;-81
2023/11/19 06:43:08;;;;;;;2.10;0.80;;;;;;;11.41;51.30;98500.56;4973144;28;20106;-80
2023/11/19 06:45:33;;;;;;;4.93;0.85;;;;;;;11.47;49.72;98506.28;4972347;28;20031;-79
2023/11/19 06:48:03;;;;;;;6.63;0.98;;;;;;;11.55;52.73;98511.69;4955834;28;20093;-81
2023/11/19 06:50:28;;;;;;;10.63;1.25;;;;;;;11.64;50.15;98497.84;4989085;28;20079;-79
2023/11/19 06:52:54;;;;;;;4.43;1.35;;;;;;;12.10;49.62;98493.13;4984028;28;20027;-78
2023/11/19 06:55:19;;;;;;;5.28;1.20;;;;;;;12.41;53.84;98499.13;4989215;28;20070;-77
2023/11/19 06:57:45;;;;;;;2.35;0.90;;;;;;;12.38;51.36;98495.94;4972964;28;20046;-82
2023/11/19 07:00:11;;;;;;;6.38;0.90;;;;;;;12.45;52.15;98492.63;4972626;28;20041;-78
2023/11/19 07:02:36;;;;;;;2.47;0.70;;;;;;;12.52;50.63;98502.56;4967791;28;20019;-79
2023/11/19 07:05:04;;;;;;;1.85;1.13;;;;;;;13.38;48.15;98498.34;4953444;29;20562;-78
2023/11/19 07:07:33;;;;;;;2.53;1.00;;;;;;;14.23;45.63;98529.84;4963620;28;20019;-80
2023/11/19 07:09:59;;;;;;;5.60;0.70;;;;;;;13.93;44.67;98509.91;4971516;28;20030;-79
2023/11/19 07:12:26;;;;;;;1.42;0.73;;;;;;;13.86;43.95;98516.72;4956309;28;20042;-78
2023/11/19 07:14:52;;;;;;;1.83;0.93;;;;;;;13.73;43.48;98504.72;4969282;28;20035;-80
2023/11/19 07:17:20;;;;;;;6.63;1.00;;;;;;;13.67;43.40;98496.63;4968954;28;20102;-79
2023/11/19 07:19:46;;;;;;;1.98;0.90;;;;;;;13.78;43.60;98509.56;4952432;29;20530;-79
2023/11/19 07:22:11;;;;;;;2.63;0.80;;;;;;;13.79;43.20;98513.00;4947533;28;20050;-79
2023/11/19 07:24:39;;;;;;;1.92;0.75;;;;;;;13.73;43.19;98494.25;4956021;28;20043;-84
2023/11/19 07:27:10;;;;;;;2.40;0.80;;;;;;;15.00;41.85;98506.69;4988676;28;20055;-79
2023/11/19 07:29:36;;;;;;;1.48;0.60;;;;;;;16.08;43.39;98489.81;4956654;28;20039;-79
2023/11/19 07:32:04;;;;;;;1.40;0.70;;;;;;;17.06;40.00;98505.03;4973306;28;20038;-79
2023/11/19 07:34:30;;;;;;;2.22;0.73;;;;;;;17.94;38.25;98489.47;4971255;28;20046;-76
2023/11/19 07:36:59;;;;;;;2.78;1.00;;;;;;;18.81;36.02;98497.28;4972895;28;20062;-74
2023/11/19 07:39:24;;;;;;;4.28;0.75;;;;;;;19.66;32.68;98500.75;4968016;28;20351;-74
2023/11/19 07:41:50;;;;;;;4.07;0.77;;;;;;;20.40;29.86;98497.25;4968906;28;20034;-74
2023/11/19 07:44:16;;;;;;;3.10;0.90;;;;;;;21.05;28.33;98507.97;4967300;28;20086;-73
2023/11/19 07:46:42;;;;;;;5.63;0.80;;;;;;;21.72;27.21;98509.31;4986179;28;20027;-73
2023/11/19 07:49:07;;;;;;;1.63;0.70;;;;;;;22.32;26.19;98520.28;4955930;28;20039;-77
2023/11/19 07:51:33;;;;;;;2.20;0.80;;;;;;;22.74;25.11;98523.72;4971315;28;20117;-74
2023/11/19 07:53:58;;;;;;;1.30;0.73;;;;;;;23.21;24.14;98521.16;4971659;28;20093;-76
2023/11/19 07:56:24;;;;;;;2.05;0.70;;;;;;;23.58;23.77;98547.41;4972897;28;20034;-77
2023/11/19 07:58:49;;;;;;;1.20;0.68;;;;;;;23.73;23.41;98547.16;4988504;28;20030;-77
2023/11/19 08:01:15;;;;;;;2.58;0.60;;;;;;;24.26;22.89;98546.25;4974259;28;20039;-78
2023/11/19 08:03:41;;;;;;;2.22;0.65;;;;;;;24.57;21.98;98542.88;4971833;28;20126;-78
2023/11/19 08:06:06;;;;;;;1.38;0.70;;;;;;;24.93;21.81;98552.13;4956152;28;20066;-77
2023/11/19 08:08:33;;;;;;;2.13;0.70;;;;;;;25.28;21.53;98562.41;4956465;28;20125;-77
2023/11/19 08:11:00;;;;;;;0.70;0.50;;;;;;;25.59;20.87;98555.41;4972834;28;20406;-77
2023/11/19 08:13:25;;;;;;;1.83;0.70;;;;;;;25.79;21.13;98548.03;4972455;28;20101;-76
2023/11/19 08:15:51;;;;;;;1.05;0.60;;;;;;;26.11;21.04;98553.28;4972508;28;20027;-76
2023/11/19 08:18:18;;;;;;;1.02;0.63;;;;;;;26.34;20.93;98541.06;4988547;28;20039;-76
2023/11/19 08:20:44;;;;;;;0.80;0.60;;;;;;;26.62;20.61;98553.91;4971403;28;20034;-74
2023/11/19 08:23:10;;;;;;;1.92;0.60;;;;;;;26.84;20.30;98551.59;4972939;28;20454;-76
2023/11/19 08:25:35;;;;;;;1.27;0.68;;;;;;;27.01;19.82;98535.69;4956727;28;20038;-76
2023/11/19 08:28:07;;;;;;;2.28;0.70;;;;;;;27.25;19.74;98533.88;4973551;28;20104;-77
2023/11/19 08:30:33;;;;;;;2.45;0.70;;;;;;;27.51;19.81;98531.03;4956989;28;20395;-74
2023/11/19 08:33:02;;;;;;;1.02;0.60;;;;;;;27.72;19.29;98529.63;4973234;28;20042;-75
2023/11/19 08:35:29;;;;;;;1.25;0.60;;;;;;;27.88;18.83;98536.13;4973022;28;20134;-74
2023/11/19 08:37:55;;;;;;;0.80;0.50;;;;;;;27.98;18.91;98515.75;4971218;28;20423;-76
2023/11/19 08:40:20;;;;;;;2.08;0.80;;;;;;;28.19;18.73;98529.59;4987639;28;20161;-74
2023/11/19 08:42:46;;;;;;;1.67;0.80;;;;;;;28.38;18.45;98527.56;4971954;28;20434;-75
2023/11/19 08:45:17;;;;;;;3.65;0.80;;;;;;;28.64;18.74;98533.47;4955848;28;20129;-78
2023/11/19 08:47:45;;;;;;;1.63;1.00;;;;;;;28.98;18.01;98537.03;4986869;28;20502;-77
2023/11/19 08:50:13;;;;;;;2.38;1.00;;;;;;;29.20;18.12;98531.78;4971329;28;20142;-75
2023/11/19 08:52:39;;;;;;;1.38;0.80;;;;;;;29.51;17.94;98524.22;4986632;28;20109;-78
2023/11/19 08:55:05;;;;;;;2.03;0.60;;;;;;;30.11;17.66;98546.06;4970959;28;20042;-80
2023/11/19 08:57:32;;;;;;;1.45;0.70;;;;;;;30.70;16.75;98531.16;4971272;28;20035;-78
2023/11/19 08:59:58;;;;;;;1.00;0.65;;;;;;;31.48;15.82;98563.94;4971228;28;20066;-77
2023/11/19 09:02:23;;;;;;;0.90;0.55;;;;;;;32.22;15.06;98565.00;4955126;28;20058;-76
2023/11/19 09:04:49;;;;;;;0.70;0.65;;;;;;;33.00;15.38;98577.72;4970939;28;20039;-76
2023/11/19 09:07:14;;;;;;;3.45;0.70;;;;;;;33.64;14.71;98578.28;4988542;28;20078;-76
2023/11/19 09:09:40;;;;;;;1.35;0.80;;;;;;;33.71;14.10;98595.06;4971194;28;20430;-77
2023/11/19 09:12:06;;;;;;;0.85;0.60;;;;;;;33.26;14.83;98595.91;4972186;28;20474;-75
2023/11/19 09:14:32;;;;;;;2.17;0.77;;;;;;;32.72;15.09;98592.50;4954708;28;20066;-77
2023/11/19 09:16:58;;;;;;;1.35;0.75;;;;;;;32.05;16.21;98591.34;4970465;28;20477;-80
2023/11/19 09:19:24;;;;;;;1.60;0.60;;;;;;;31.52;16.72;98572.34;4970838;28;20035;-81
2023/11/19 09:21:49;;;;;;;0.70;0.50;;;;;;;31.29;16.84;98578.91;4970342;28;20418;-78
2023/11/19 09:24:16;;;;;;;2.00;0.60;;;;;;;31.47;17.05;98558.81;4955470;28;20043;-79
2023/11/19 09:26:43;;;;;;;1.42;0.80;;;;;;;32.21;16.08;98559.88;4970607;28;20093;-79
2023/11/19 09:29:10;;;;;;;1.63;1.20;;;;;;;33.46;15.14;98554.47;4956202;28;20035;-78
2023/11/19 09:31:37;;;;;;;2.13;1.55;;;;;;;34.64;14.23;98554.19;4971911;28;20078;-78
2023/11/19 09:34:02;;;;;;;1.80;1.30;;;;;;;35.60;13.58;98540.22;4974685;28;20058;-78
2023/11/19 09:36:28;;;;;;;3.45;1.10;;;;;;;36.34;12.83;98550.84;4990409;28;20035;-78
2023/11/19 09:38:53;;;;;;;2.15;1.40;;;;;;;36.55;12.90;98543.22;4973744;28;20046;-79
2023/11/19 09:41:19;;;;;;;1.90;1.30;;;;;;;36.37;13.17;98565.75;4974577;28;20038;-79
2023/11/19 09:43:45;;;;;;;1.70;1.30;;;;;;;36.03;13.55;98562.03;4974068;28;20062;-78
2023/11/19 09:46:11;;;;;;;2.47;1.17;;;;;;;35.55;14.08;98575.56;4990830;28;20097;-77
2023/11/19 09:48:38;;;;;;;1.87;1.30;;;;;;;35.01;14.20;98569.16;4975237;28;20465;-79
2023/11/19 09:51:07;;;;;;;2.30;1.47;;;;;;;34.28;14.27;98570.59;4974865;28;20278;-78
2023/11/19 09:53:33;;;;;;;2.00;1.33;;;;;;;33.82;13.99;98582.34;4957962;28;20804;-81
2023/11/19 09:56:03;;;;;;;3.80;1.45;;;;;;;33.13;14.10;98579.06;4990638;28;20030;-83
2023/11/19 09:58:30;;;;;;;2.30;1.77;;;;;;;32.70;14.10;98585.75;4974140;28;20027;-77
2023/11/19 10:00:58;;;;;;;3.00;2.33;;;;;;;32.27;14.11;98575.81;4957480;28;20071;-75
2023/11/19 10:03:23;;;;;;;3.67;2.50;;;;;;;31.84;14.53;98568.81;4974767;28;20053;-75
2023/11/19 10:05:49;;;;;;;4.75;3.95;;;;;;;31.65;14.39;98565.72;4956445;28;20161;-78
2023/11/19 10:08:16;;;;;;;4.38;3.42;;;;;;;31.26;14.41;98576.72;4957056;28;20042;-77
2023/11/19 10:10:41;;;;;;;7.18;2.83;;;;;;;30.88;14.91;98581.19;4958266;28;20482;-77
2023/11/19 10:13:08;;;;;;;3.95;2.70;;;;;;;30.58;14.64;98579.78;4973832;28;20039;-79
2023/11/19 10:15:36;;;;;;;4.75;2.70;;;;;;;30.19;15.53;98588.69;4974085;28;20035;-78
2023/11/19 10:18:02;;;;;;;3.15;2.10;;;;;;;29.92;15.80;98577.81;4973835;28;20113;-74
2023/11/19 10:20:27;;;;;;;2.42;1.73;;;;;;;29.55;15.75;98579.13;4988772;28;20483;-75
2023/11/19 10:22:54;;;;;;;3.42;2.80;;;;;;;29.12;15.66;98575.16;4973260;28;20053;-74
2023/11/19 10:25:27;;;;;;;3.15;2.33;;;;;;;28.85;15.93;98583.00;4971632;28;20078;-75
2023/11/19 10:27:53;;;;;;;6.78;2.63;;;;;;;28.51;16.35;98628.47;4973454;28;20041;-76
2023/11/19 10:30:27;;;;;;;5.70;3.03;;;;;;;28.26;16.12;98610.81;4956302;28;20031;-77
2023/11/19 10:33:10;;;;;;;3.85;2.72;;;;;;;27.89;16.63;98602.94;4957098;28;20034;-75
2023/11/19 10:35:54;;;;;;;4.63;2.47;;;;;;;27.53;16.42;98604.81;4957088;28;20479;-76
2023/11/19 10:38:21;;;;;;;5.47;4.15;;;;;;;27.26;16.92;98618.59;4973103;28;20491;-77
2023/11/19 10:40:47;;;;;;;5.10;3.20;;;;;;;27.06;16.77;98618.84;4972441;28;20022;-75
2023/11/19 10:43:13;;;;;;;4.53;3.47;;;;;;;26.86;17.16;98605.72;4972765;28;20325;-75
2023/11/19 10:45:39;;;;;;;17.13;14.02;;;;;;;26.63;16.96;98610.94;4956711;28;20529;-75
2023/11/19 10:48:07;;;;;;;10.73;9.05;;;;;;;26.44;17.55;98605.59;4957170;28;20041;-75
2023/11/19 10:50:34;;;;;;;8.13;6.85;;;;;;;26.26;17.43;98598.38;4972912;28;20483;-74
2023/11/19 10:53:00;;;;;;;8.00;5.40;;;;;;;26.06;17.88;98576.38;4972033;28;20045;-75
2023/11/19 10:55:30;;;;;;;8.10;5.15;;;;;;;25.89;17.69;98581.47;4971820;28;20486;-73
2023/11/19 10:58:05;;;;;;;6.53;4.70;;;;;;;25.73;17.78;98589.00;4972099;28;20109;-75
2023/11/19 11:00:45;;;;;;;7.20;5.53;;;;;;;25.56;18.09;98602.06;4957711;28;20038;-76
2023/11/19 11:03:20;;;;;;;9.43;6.68;;;;;;;25.31;18.22;98594.03;4990031;28;20039;-76
2023/11/19 11:05:55;;;;;;;11.40;7.65;;;;;;;25.18;18.45;98605.59;4973668;28;20045;-76
2023/11/19 11:08:20;;;;;;;9.88;7.45;;;;;;;25.03;18.54;98610.41;4957214;28;20031;-76
2023/11/19 11:10:53;;;;;;;9.23;7.40;;;;;;;24.78;18.91;98597.81;4972844;28;20117;-77
2023/11/19 11:13:19;;;;;;;9.57;7.22;;;;;;;24.66;18.80;98594.97;4957090;28;20026;-78
2023/11/19 11:15:47;;;;;;;7.05;5.95;;;;;;;24.45;18.93;98593.41;4973288;28;20057;-76
2023/11/19 11:18:13;;;;;;;9.00;6.68;;;;;;;24.30;19.10;98593.63;4973255;28;20532;-78
2023/11/19 11:20:38;;;;;;;8.52;5.93;;;;;;;24.13;19.14;98592.44;4973092;28;20046;-78
2023/11/19 11:23:22;;;;;;;9.90;6.18;;;;;;;23.93;19.36;98600.50;4989025;28;20483;-75
2023/11/19 11:26:00;;;;;;;8.30;5.85;;;;;;;23.75;19.58;98593.91;4974294;28;20027;-76
2023/11/19 11:28:56;;;;;;;8.32;6.70;;;;;;;23.55;19.83;98604.56;4974544;28;20046;-75
2023/11/19 11:31:44;;;;;;;6.70;5.38;;;;;;;23.38;19.85;98601.47;4973569;28;20038;-76